CYGH

Fort Good Hope Airport

Fort Good Hope, Northwest Territories, Canada
METAR CYGH 160000Z 10005KT 20SM FEW150 M23/M25 A2979 RMK AC1 TR/TR/29/SNOW COVER/MUCH LOOSE/LAST STFD OBS/ NEXT 161400Z SLP102
Observed Flight Rules
Dec-16 @ 00:00 UTC (13 hours ago) Visual Flight Rules
Wind Visibility Clouds
100° at 5 knots 20 miles
  • Few at 15,000' AGL
Temperatures Readings
Current -23°C / -9°F
Dewpoint -25°C / -13°F
Humidity 84%
Altimeter 29.79" Hg
Pressure 1010.2 hPa
Elevation 66
METAR CYGH 160000Z 10005KT 20SM FEW150 M23/M25 A2979 RMK AC1 TR/TR/29/SNOW COVER/MUCH LOOSE/LAST STFD OBS/ NEXT 161400Z SLP102
Observed Flight Rules
Dec-16 @ 00:00 UTC
(13 hours ago)
VFR
Wind Visibility
100° at 5 knots 20 miles
Clouds
  • Few at 15,000' AGL
Temperature Dewpoint
-23°C / -9°F -25°C / -13°F
Humidity Altimeter Pressure
84% 29.79" Hg 1010.2 hPa